createdAt,value
2022-08-31T00:00:32.388Z,26.28
2022-08-31T00:05:39.565Z,26.28
2022-08-31T00:10:47.214Z,26.33
2022-08-31T00:15:53.942Z,26.24
2022-08-31T00:21:01.121Z,26.24
2022-08-31T00:26:08.312Z,26.17
2022-08-31T00:31:15.604Z,26.21
2022-08-31T00:36:22.778Z,26.25
2022-08-31T00:41:29.965Z,26.23
2022-08-31T00:46:37.171Z,26.09
2022-08-31T00:51:44.360Z,26.11
2022-08-31T00:56:51.548Z,26.09
2022-08-31T01:01:58.900Z,26.08
2022-08-31T01:07:06.044Z,26.08
2022-08-31T01:12:13.296Z,26.11
2022-08-31T01:17:20.507Z,26.07
2022-08-31T01:22:27.767Z,26.08
2022-08-31T01:27:35.047Z,26.06
2022-08-31T01:32:42.257Z,26.08
2022-08-31T01:37:49.571Z,26.08
2022-08-31T01:42:56.832Z,26.07
2022-08-31T01:48:04.065Z,26.07
2022-08-31T01:53:11.314Z,26.04
2022-08-31T01:58:18.465Z,26.03
2022-08-31T02:03:25.667Z,25.97
2022-08-31T02:08:32.932Z,25.98
2022-08-31T02:13:40.104Z,25.97
2022-08-31T02:18:47.277Z,25.91
2022-08-31T02:23:54.469Z,25.93
2022-08-31T02:29:01.656Z,25.88
2022-08-31T02:34:08.847Z,25.87
2022-08-31T02:39:16.031Z,25.83
2022-08-31T02:44:23.199Z,25.86
2022-08-31T02:49:30.396Z,25.84
2022-08-31T02:54:37.587Z,25.83
2022-08-31T02:59:44.766Z,25.81
2022-08-31T03:04:51.943Z,25.82
2022-08-31T03:09:59.134Z,25.82
2022-08-31T03:15:06.316Z,25.79
2022-08-31T03:20:13.505Z,25.79
2022-08-31T03:25:20.719Z,25.79
2022-08-31T03:30:29.850Z,25.77
2022-08-31T03:35:35.175Z,25.81
2022-08-31T03:40:42.431Z,25.81
2022-08-31T03:45:49.678Z,25.83
2022-08-31T03:50:56.748Z,25.87
2022-08-31T03:56:04.025Z,25.87
2022-08-31T04:01:11.337Z,25.84
2022-08-31T04:06:18.470Z,25.84
2022-08-31T04:11:32.748Z,25.88
2022-08-31T04:16:32.892Z,25.86
2022-08-31T04:21:40.144Z,25.87
2022-08-31T04:26:47.315Z,25.86
2022-08-31T04:31:54.494Z,25.84
2022-08-31T04:37:01.700Z,25.82
2022-08-31T04:42:08.856Z,25.80
2022-08-31T04:47:16.059Z,25.78
2022-08-31T04:52:23.936Z,25.76
2022-08-31T04:57:30.445Z,25.71
2022-08-31T05:02:37.723Z,25.65
2022-08-31T05:07:44.921Z,25.63
2022-08-31T05:12:52.129Z,25.62
2022-08-31T05:17:59.264Z,25.60
2022-08-31T05:23:06.459Z,25.58
2022-08-31T05:28:13.638Z,25.53
2022-08-31T05:33:20.829Z,25.56
2022-08-31T05:38:27.991Z,25.58
2022-08-31T05:43:35.222Z,25.60
2022-08-31T05:48:42.392Z,25.57
2022-08-31T05:53:49.583Z,25.58
2022-08-31T05:58:56.875Z,25.57
2022-08-31T06:04:04.144Z,25.57
2022-08-31T06:09:11.319Z,25.56
2022-08-31T06:14:18.505Z,25.52
2022-08-31T06:19:25.804Z,25.50
2022-08-31T06:24:33.002Z,25.49
2022-08-31T06:29:40.158Z,25.47
2022-08-31T06:34:47.345Z,25.45
2022-08-31T06:39:54.540Z,25.44
2022-08-31T06:45:01.782Z,25.35
2022-08-31T06:50:08.995Z,25.36
2022-08-31T06:55:16.185Z,25.38
2022-08-31T07:00:23.365Z,25.39
2022-08-31T07:05:30.549Z,25.42
2022-08-31T07:10:37.744Z,25.39
2022-08-31T07:15:44.938Z,25.45
2022-08-31T07:20:52.124Z,25.33
2022-08-31T07:25:59.303Z,25.37
2022-08-31T07:31:06.614Z,25.39
2022-08-31T07:36:13.785Z,25.22
2022-08-31T07:41:21.009Z,25.29
2022-08-31T07:46:28.320Z,25.15
2022-08-31T07:51:35.450Z,25.14
2022-08-31T07:56:42.636Z,25.08
2022-08-31T08:01:50.046Z,25.13
2022-08-31T08:06:57.187Z,25.18
2022-08-31T08:12:04.379Z,25.21
2022-08-31T08:17:11.569Z,25.22
2022-08-31T08:22:35.705Z,25.28
2022-08-31T08:27:26.021Z,25.20
2022-08-31T08:32:33.313Z,25.03
2022-08-31T08:37:57.363Z,24.88
2022-08-31T08:42:47.792Z,24.83
2022-08-31T08:47:55.071Z,24.87
2022-08-31T08:53:02.383Z,24.70
2022-08-31T08:58:09.652Z,24.87
2022-08-31T09:03:16.856Z,24.48
2022-08-31T09:08:24.124Z,24.69
2022-08-31T09:13:31.302Z,24.56
2022-08-31T09:18:38.632Z,24.44
2022-08-31T09:23:45.929Z,24.28
2022-08-31T09:28:53.200Z,24.06
2022-08-31T09:34:00.486Z,23.79
2022-08-31T09:39:07.707Z,23.83
2022-08-31T09:44:15.733Z,23.62
2022-08-31T09:49:22.921Z,23.73
2022-08-31T09:54:30.212Z,23.76
2022-08-31T09:59:37.485Z,23.61
2022-08-31T10:04:44.802Z,23.64
2022-08-31T10:09:57.647Z,23.70
2022-08-31T10:14:59.227Z,23.56
2022-08-31T10:20:06.396Z,23.51
2022-08-31T10:25:13.587Z,23.59
2022-08-31T10:30:20.787Z,23.77
2022-08-31T10:35:27.953Z,24.04
2022-08-31T10:40:35.234Z,23.94
2022-08-31T10:45:42.334Z,23.96
2022-08-31T10:50:49.497Z,23.89
2022-08-31T10:55:56.704Z,23.95
2022-08-31T11:01:03.947Z,23.79
2022-08-31T11:06:11.169Z,23.73
2022-08-31T11:11:18.376Z,23.64
2022-08-31T11:16:25.571Z,23.65
2022-08-31T11:21:32.843Z,23.55
2022-08-31T11:26:40.023Z,23.49
2022-08-31T11:31:47.446Z,23.59
2022-08-31T11:36:54.745Z,23.51
2022-08-31T11:42:01.660Z,23.47
2022-08-31T11:47:08.892Z,23.39
2022-08-31T11:52:16.160Z,23.72
2022-08-31T11:57:23.330Z,23.61
2022-08-31T12:02:30.625Z,23.56
2022-08-31T12:07:37.676Z,23.56
2022-08-31T12:12:44.894Z,23.55
2022-08-31T12:17:52.295Z,23.49
2022-08-31T12:23:01.843Z,23.43
2022-08-31T12:28:09.055Z,23.46
2022-08-31T12:33:16.333Z,23.54
2022-08-31T12:38:23.531Z,23.70
2022-08-31T12:43:30.717Z,23.71
2022-08-31T12:48:37.972Z,23.64
2022-08-31T12:53:45.171Z,23.52
2022-08-31T12:58:52.359Z,23.62
2022-08-31T13:03:59.543Z,23.69
2022-08-31T13:09:06.721Z,23.66
2022-08-31T13:14:13.997Z,23.67
2022-08-31T13:19:21.189Z,23.72
2022-08-31T13:24:28.387Z,23.74
2022-08-31T13:29:35.682Z,23.71
2022-08-31T13:34:42.875Z,23.66
2022-08-31T13:39:50.130Z,23.70
2022-08-31T13:44:57.338Z,23.69
2022-08-31T13:50:04.534Z,23.73
2022-08-31T13:55:11.813Z,23.73
2022-08-31T14:00:19.046Z,23.75
2022-08-31T14:05:26.454Z,23.76
2022-08-31T14:10:33.650Z,23.79
2022-08-31T14:15:40.964Z,23.81
2022-08-31T14:21:16.844Z,23.84
2022-08-31T14:25:55.397Z,23.83
2022-08-31T14:31:02.677Z,24.01
2022-08-31T14:36:09.884Z,24.01
2022-08-31T14:41:17.045Z,24.05
2022-08-31T14:46:24.249Z,24.00
2022-08-31T14:51:31.437Z,24.01
2022-08-31T14:56:38.613Z,24.04
2022-08-31T15:01:45.850Z,24.05
2022-08-31T15:06:52.987Z,23.98
2022-08-31T15:12:00.238Z,23.98
2022-08-31T15:17:07.445Z,23.96
2022-08-31T15:22:14.630Z,23.97
2022-08-31T15:27:21.816Z,23.94
2022-08-31T15:32:29.021Z,24.04
2022-08-31T15:37:36.177Z,23.96
2022-08-31T15:42:43.381Z,24.04
2022-08-31T15:47:50.565Z,23.95
2022-08-31T15:52:57.752Z,23.97
2022-08-31T15:58:04.946Z,23.96
2022-08-31T16:03:12.131Z,23.98
2022-08-31T16:08:19.529Z,23.91
2022-08-31T16:13:26.479Z,23.92
2022-08-31T16:18:33.701Z,23.92
2022-08-31T16:23:40.971Z,23.99
2022-08-31T16:28:48.151Z,23.96
2022-08-31T16:33:55.343Z,23.92
2022-08-31T16:39:02.516Z,23.95
2022-08-31T16:44:19.634Z,23.98
2022-08-31T16:49:16.896Z,24.10
2022-08-31T16:54:24.090Z,23.86
2022-08-31T16:59:31.260Z,23.99
2022-08-31T17:04:52.197Z,23.89
2022-08-31T17:09:45.726Z,24.05
2022-08-31T17:14:53.013Z,23.87
2022-08-31T17:20:00.101Z,23.85
2022-08-31T17:25:07.279Z,24.01
2022-08-31T17:30:14.492Z,24.00
2022-08-31T17:35:21.750Z,24.06
2022-08-31T17:40:29.069Z,24.08
2022-08-31T17:45:36.227Z,24.06
2022-08-31T17:50:43.422Z,24.13
2022-08-31T17:55:50.711Z,24.34
2022-08-31T18:00:58.042Z,24.50
2022-08-31T18:06:05.169Z,24.61
2022-08-31T18:11:12.348Z,24.70
2022-08-31T18:16:19.613Z,24.74
2022-08-31T18:21:26.796Z,24.78
2022-08-31T18:26:33.994Z,24.80
2022-08-31T18:31:41.276Z,24.80
2022-08-31T18:36:48.386Z,24.80
2022-08-31T18:41:55.684Z,24.93
2022-08-31T18:47:02.880Z,25.04
2022-08-31T18:52:10.158Z,25.15
2022-08-31T18:57:17.635Z,25.29
2022-08-31T19:02:25.267Z,25.34
2022-08-31T19:07:32.453Z,25.42
2022-08-31T19:12:39.732Z,25.48
2022-08-31T19:17:47.158Z,25.52
2022-08-31T19:22:54.481Z,25.59
2022-08-31T19:28:01.892Z,25.63
2022-08-31T19:33:09.218Z,25.63
2022-08-31T19:38:16.702Z,25.66
2022-08-31T19:48:31.921Z,25.73
2022-08-31T19:53:40.472Z,25.75
2022-08-31T19:58:47.041Z,25.77
2022-08-31T20:03:54.259Z,25.68
2022-08-31T20:09:01.529Z,25.62
2022-08-31T20:14:08.803Z,25.56
2022-08-31T20:19:16.011Z,25.62
2022-08-31T20:24:23.302Z,25.64
2022-08-31T20:29:30.489Z,25.71
2022-08-31T20:34:37.792Z,25.75
2022-08-31T20:39:45.061Z,25.78
2022-08-31T20:44:52.343Z,25.77
2022-08-31T20:49:59.651Z,25.76
2022-08-31T20:55:06.898Z,25.78
2022-08-31T21:00:14.144Z,25.79
2022-08-31T21:05:38.744Z,25.84
2022-08-31T21:10:37.595Z,25.79
2022-08-31T21:15:35.973Z,25.71
2022-08-31T21:20:43.006Z,25.75
2022-08-31T21:25:50.209Z,25.76
2022-08-31T21:30:57.549Z,25.81
2022-08-31T21:36:04.683Z,25.83
2022-08-31T21:41:11.972Z,25.86
2022-08-31T21:46:19.192Z,25.86
2022-08-31T21:51:26.331Z,25.82
2022-08-31T21:56:33.499Z,25.77
2022-08-31T22:01:40.755Z,25.66
2022-08-31T22:06:47.875Z,25.71
2022-08-31T22:11:55.057Z,25.65
2022-08-31T22:17:02.184Z,25.67
2022-08-31T22:22:12.092Z,25.60
2022-08-31T22:27:16.605Z,25.59
2022-08-31T22:32:23.843Z,25.61
2022-08-31T22:37:31.080Z,25.63
2022-08-31T22:42:38.271Z,25.63
2022-08-31T22:47:50.062Z,25.64
2022-08-31T22:52:52.631Z,25.64
2022-08-31T22:57:59.831Z,25.65
2022-08-31T23:03:07.001Z,25.66
2022-08-31T23:08:14.193Z,25.61
2022-08-31T23:13:21.368Z,25.60
2022-08-31T23:18:28.664Z,25.60
2022-08-31T23:23:35.855Z,25.52
2022-08-31T23:28:43.041Z,25.57
2022-08-31T23:33:50.225Z,25.57
2022-08-31T23:38:57.461Z,25.57
2022-08-31T23:44:04.692Z,25.59
2022-08-31T23:49:11.874Z,25.57
2022-08-31T23:54:19.066Z,25.56
2022-08-31T23:59:26.246Z,25.50
